createdAt,value
2018-03-16T00:00:11.023Z,10.00
2018-03-16T00:02:38.626Z,10.00
2018-03-16T00:05:07.002Z,10.00
2018-03-16T00:07:34.615Z,10.10
2018-03-16T00:10:02.226Z,10.10
2018-03-16T00:12:29.812Z,10.10
2018-03-16T00:14:57.396Z,10.10
2018-03-16T00:17:25.606Z,10.10
2018-03-16T00:19:53.184Z,10.20
2018-03-16T00:22:33.512Z,10.20
2018-03-16T00:25:01.108Z,10.20
2018-03-16T00:27:29.443Z,10.20
2018-03-16T00:29:59.091Z,10.20
2018-03-16T00:32:26.709Z,10.20
2018-03-16T00:34:54.368Z,10.20
2018-03-16T00:37:21.986Z,10.20
2018-03-16T00:39:50.399Z,10.20
2018-03-16T00:42:18.006Z,10.20
2018-03-16T00:44:45.651Z,10.20
2018-03-16T00:47:13.257Z,10.10
2018-03-16T00:49:40.828Z,10.10
2018-03-16T00:52:09.516Z,9.80
2018-03-16T00:54:37.859Z,9.70
2018-03-16T00:57:05.443Z,9.70
2018-03-16T00:59:33.067Z,9.60
2018-03-16T01:02:00.636Z,9.60
2018-03-16T01:04:28.229Z,9.50
2018-03-16T01:06:55.808Z,9.50
2018-03-16T01:09:23.834Z,9.50
2018-03-16T01:11:51.421Z,9.40
2018-03-16T01:14:19.020Z,9.30
2018-03-16T01:16:46.619Z,9.50
2018-03-16T01:19:14.207Z,9.60
2018-03-16T01:21:42.295Z,9.40
2018-03-16T01:24:10.785Z,9.10
2018-03-16T01:26:38.355Z,8.70
2018-03-16T01:29:06.523Z,8.40
2018-03-16T01:31:34.866Z,8.10
2018-03-16T01:34:02.439Z,8.10
2018-03-16T01:36:30.075Z,7.90
2018-03-16T01:38:57.678Z,7.80
2018-03-16T01:41:25.239Z,7.80
2018-03-16T01:43:53.062Z,7.80
2018-03-16T01:46:21.408Z,7.70
2018-03-16T01:48:49.036Z,7.70
2018-03-16T01:51:16.633Z,7.70
2018-03-16T01:53:44.902Z,7.70
2018-03-16T01:56:12.472Z,7.70
2018-03-16T01:58:40.047Z,7.60
2018-03-16T02:01:07.715Z,7.60
2018-03-16T02:03:35.297Z,7.60
2018-03-16T02:06:02.930Z,7.60
2018-03-16T02:08:31.619Z,7.60
2018-03-16T02:10:59.180Z,7.50
2018-03-16T02:13:26.765Z,7.50
2018-03-16T02:15:55.631Z,7.50
2018-03-16T02:18:23.192Z,7.40
2018-03-16T02:20:50.924Z,7.50
2018-03-16T02:23:18.520Z,7.50
2018-03-16T02:25:46.163Z,7.40
2018-03-16T02:28:14.204Z,7.40
2018-03-16T02:30:42.536Z,7.50
2018-03-16T02:33:10.118Z,7.40
2018-03-16T02:35:38.239Z,7.40
2018-03-16T02:38:05.824Z,7.30
2018-03-16T02:40:33.959Z,7.20
2018-03-16T02:43:01.519Z,7.20
2018-03-16T02:45:29.086Z,7.20
2018-03-16T02:47:56.684Z,7.20
2018-03-16T02:50:24.266Z,7.10
2018-03-16T02:52:51.859Z,7.20
2018-03-16T02:55:20.730Z,7.40
2018-03-16T02:57:49.063Z,7.50
2018-03-16T03:00:16.648Z,7.40
2018-03-16T03:02:45.163Z,7.50
2018-03-16T03:05:13.502Z,7.60
2018-03-16T03:07:41.079Z,7.50
2018-03-16T03:10:08.692Z,7.50
2018-03-16T03:12:36.268Z,7.40
2018-03-16T03:15:03.891Z,7.30
2018-03-16T03:17:32.065Z,7.50
2018-03-16T03:19:59.632Z,7.40
2018-03-16T03:22:27.570Z,7.50
2018-03-16T03:24:55.508Z,7.40
2018-03-16T03:27:25.758Z,7.30
2018-03-16T03:29:53.423Z,7.20
2018-03-16T03:32:21.027Z,7.30
2018-03-16T03:34:49.406Z,7.50
2018-03-16T03:37:17.059Z,7.40
2018-03-16T03:39:44.658Z,7.40
2018-03-16T03:42:12.987Z,7.30
2018-03-16T03:44:40.795Z,7.30
2018-03-16T03:47:09.177Z,7.30
2018-03-16T03:49:36.758Z,7.30
2018-03-16T03:52:04.346Z,7.30
2018-03-16T03:54:31.950Z,7.20
2018-03-16T03:56:59.520Z,7.20
2018-03-16T03:59:27.875Z,7.30
2018-03-16T04:01:55.621Z,7.30
2018-03-16T04:04:23.177Z,7.30
2018-03-16T04:06:50.815Z,7.20
2018-03-16T04:09:19.227Z,7.20
2018-03-16T04:11:46.809Z,7.20
2018-03-16T04:14:14.796Z,7.20
2018-03-16T04:16:42.355Z,7.30
2018-03-16T04:19:09.975Z,7.40
2018-03-16T04:21:37.572Z,7.40
2018-03-16T04:24:05.710Z,7.50
2018-03-16T04:26:33.299Z,7.50
2018-03-16T04:29:00.867Z,7.40
2018-03-16T04:31:28.769Z,7.40
2018-03-16T04:33:57.107Z,7.20
2018-03-16T04:36:24.676Z,7.20
2018-03-16T04:38:52.273Z,7.20
2018-03-16T04:41:19.855Z,7.30
2018-03-16T04:43:48.216Z,7.40
2018-03-16T04:46:15.822Z,7.40
2018-03-16T04:48:43.418Z,7.40
2018-03-16T04:51:10.996Z,7.60
2018-03-16T04:53:40.082Z,7.60
2018-03-16T04:56:07.675Z,7.70
2018-03-16T04:58:35.326Z,7.70
2018-03-16T05:01:03.907Z,7.80
2018-03-16T05:03:31.519Z,7.80
2018-03-16T05:05:59.109Z,7.20
2018-03-16T05:08:26.707Z,7.80
2018-03-16T05:10:54.928Z,7.80
2018-03-16T05:13:22.561Z,7.80
2018-03-16T05:15:50.975Z,7.80
2018-03-16T05:18:18.575Z,7.80
2018-03-16T05:20:46.172Z,8.10
2018-03-16T05:23:14.507Z,7.70
2018-03-16T05:25:42.071Z,7.60
2018-03-16T05:28:10.348Z,7.60
2018-03-16T05:30:37.914Z,7.50
2018-03-16T05:33:05.498Z,8.00
2018-03-16T05:35:33.095Z,7.50
2018-03-16T05:38:00.677Z,7.50
2018-03-16T05:40:28.596Z,7.50
2018-03-16T05:42:56.936Z,7.50
2018-03-16T05:45:24.500Z,7.50
2018-03-16T05:47:52.087Z,7.40
2018-03-16T05:50:19.669Z,7.40
2018-03-16T05:52:47.561Z,7.40
2018-03-16T05:55:15.132Z,7.50
2018-03-16T05:57:42.706Z,7.40
2018-03-16T06:00:11.243Z,7.40
2018-03-16T06:02:38.866Z,7.30
2018-03-16T06:05:06.445Z,7.30
2018-03-16T06:07:34.073Z,7.30
2018-03-16T06:10:01.736Z,7.30
2018-03-16T06:12:29.311Z,7.30
2018-03-16T06:14:56.883Z,7.20
2018-03-16T06:17:24.664Z,7.20
2018-03-16T06:19:52.584Z,7.30
2018-03-16T06:22:20.971Z,7.30
2018-03-16T06:24:48.565Z,7.30
2018-03-16T06:27:16.391Z,7.30
2018-03-16T06:29:44.782Z,7.50
2018-03-16T06:32:13.180Z,7.60
2018-03-16T06:34:40.784Z,7.60
2018-03-16T06:37:08.342Z,7.60
2018-03-16T06:39:35.930Z,7.60
2018-03-16T06:42:03.527Z,7.70
2018-03-16T06:44:31.146Z,7.60
2018-03-16T06:46:59.136Z,7.70
2018-03-16T06:49:27.466Z,7.70
2018-03-16T06:51:55.071Z,7.70
2018-03-16T06:54:22.931Z,7.70
2018-03-16T06:56:50.952Z,7.60
2018-03-16T06:59:18.582Z,7.60
2018-03-16T07:01:46.571Z,7.60
2018-03-16T07:04:15.563Z,7.70
2018-03-16T07:06:43.144Z,7.60
2018-03-16T07:09:11.660Z,7.70
2018-03-16T07:11:39.238Z,7.60
2018-03-16T07:14:06.818Z,7.60
2018-03-16T07:16:35.131Z,7.60
2018-03-16T07:19:02.766Z,7.60
2018-03-16T07:21:30.452Z,7.60
2018-03-16T07:23:59.132Z,7.70
2018-03-16T07:26:27.477Z,7.70
2018-03-16T07:28:56.395Z,7.70
2018-03-16T07:31:24.284Z,7.70
2018-03-16T07:33:51.868Z,7.80
2018-03-16T07:36:20.158Z,7.80
2018-03-16T07:38:47.912Z,7.80
2018-03-16T07:41:17.352Z,7.90
2018-03-16T07:43:44.943Z,7.90
2018-03-16T07:46:16.548Z,7.90
2018-03-16T07:48:44.591Z,7.90
2018-03-16T07:51:12.962Z,7.90
2018-03-16T07:53:41.674Z,8.10
2018-03-16T07:56:09.943Z,8.10
2018-03-16T07:58:37.851Z,8.20
2018-03-16T08:01:05.472Z,8.40
2018-03-16T08:03:33.943Z,8.40
2018-03-16T08:06:02.320Z,8.50
2018-03-16T08:08:29.910Z,8.50
2018-03-16T08:10:57.530Z,8.60
2018-03-16T08:13:25.102Z,8.70
2018-03-16T08:15:53.491Z,8.70
2018-03-16T08:18:21.057Z,8.70
2018-03-16T08:20:48.647Z,8.70
2018-03-16T08:23:16.207Z,8.80
2018-03-16T08:25:43.870Z,8.90
2018-03-16T08:28:11.441Z,9.00
2018-03-16T08:30:39.122Z,9.00
2018-03-16T08:33:07.227Z,9.00
2018-03-16T08:35:34.827Z,9.20
2018-03-16T08:38:02.416Z,9.20
2018-03-16T08:40:30.008Z,9.30
2018-03-16T08:42:57.596Z,9.40
2018-03-16T08:45:25.773Z,9.50
2018-03-16T08:47:53.339Z,9.60
2018-03-16T08:50:20.919Z,9.60
2018-03-16T08:52:48.903Z,9.70
2018-03-16T08:55:16.518Z,9.70
2018-03-16T08:57:44.095Z,9.80
2018-03-16T09:00:11.725Z,9.80
2018-03-16T09:02:39.364Z,9.90
2018-03-16T09:05:07.114Z,10.00
2018-03-16T09:07:35.912Z,10.00
2018-03-16T09:10:04.243Z,10.00
2018-03-16T09:12:32.695Z,10.00
2018-03-16T09:15:00.309Z,10.10
2018-03-16T09:17:27.924Z,10.10
2018-03-16T09:19:56.558Z,10.10
2018-03-16T09:22:25.560Z,10.30
2018-03-16T09:24:53.968Z,10.40
2018-03-16T09:27:21.539Z,10.30
2018-03-16T09:29:49.282Z,10.40
2018-03-16T09:32:17.563Z,10.50
2018-03-16T09:34:45.174Z,10.50
2018-03-16T09:37:13.448Z,10.60
2018-03-16T09:39:41.351Z,10.70
2018-03-16T09:42:09.004Z,10.80
2018-03-16T09:44:36.781Z,10.90
2018-03-16T09:47:04.672Z,11.00
2018-03-16T09:49:32.345Z,11.00
2018-03-16T09:52:00.045Z,11.10
2018-03-16T09:54:27.636Z,11.20
2018-03-16T09:56:55.427Z,11.10
2018-03-16T09:59:23.042Z,11.10
2018-03-16T10:01:50.626Z,11.20
2018-03-16T10:04:19.792Z,11.30
2018-03-16T10:06:47.782Z,11.30
2018-03-16T10:09:15.871Z,11.30
2018-03-16T10:11:43.559Z,11.30
2018-03-16T10:14:12.057Z,11.40
2018-03-16T10:16:40.472Z,11.50
2018-03-16T10:19:08.209Z,11.50
2018-03-16T10:21:35.808Z,11.60
2018-03-16T10:24:03.375Z,11.60
2018-03-16T10:26:31.969Z,11.70
2018-03-16T10:28:59.572Z,11.70
2018-03-16T10:31:27.598Z,11.80
2018-03-16T10:33:55.695Z,12.00
2018-03-16T10:36:23.684Z,12.00
2018-03-16T10:38:52.402Z,12.10
2018-03-16T10:41:21.060Z,12.10
2018-03-16T10:43:49.245Z,12.30
2018-03-16T10:46:16.844Z,12.40
2018-03-16T10:48:45.249Z,12.50
2018-03-16T10:51:13.172Z,12.50
2018-03-16T10:53:41.708Z,12.50
2018-03-16T10:56:09.407Z,12.40
2018-03-16T10:58:37.056Z,12.50
2018-03-16T11:01:12.479Z,12.50
2018-03-16T11:03:46.050Z,12.50
2018-03-16T11:06:19.985Z,12.50
2018-03-16T11:08:47.579Z,12.50
2018-03-16T11:11:15.290Z,12.60
2018-03-16T11:13:44.064Z,12.70
2018-03-16T11:16:12.497Z,12.90
2018-03-16T11:18:40.079Z,12.80
2018-03-16T11:21:07.760Z,12.90
2018-03-16T11:23:35.926Z,13.00
2018-03-16T11:26:03.540Z,13.10
2018-03-16T11:28:31.180Z,13.10
2018-03-16T11:31:00.126Z,12.80
2018-03-16T11:33:27.811Z,12.80
2018-03-16T11:35:55.468Z,12.70
2018-03-16T11:38:24.172Z,12.60
2018-03-16T11:40:52.091Z,12.50
2018-03-16T11:43:19.804Z,12.40
2018-03-16T11:45:48.433Z,12.40
2018-03-16T11:48:16.094Z,12.40
2018-03-16T11:50:43.883Z,12.40
2018-03-16T11:53:12.423Z,12.40
2018-03-16T11:55:40.041Z,12.40
2018-03-16T11:58:07.654Z,12.50
2018-03-16T12:00:35.884Z,12.60
2018-03-16T12:03:03.751Z,12.90
2018-03-16T12:05:31.582Z,13.30
2018-03-16T12:07:59.949Z,13.80
2018-03-16T12:10:27.682Z,14.20
2018-03-16T12:12:55.310Z,14.70
2018-03-16T12:15:23.099Z,14.80
2018-03-16T12:17:50.870Z,14.70
2018-03-16T12:20:18.655Z,14.70
2018-03-16T12:22:46.248Z,14.70
2018-03-16T12:25:13.866Z,14.60
2018-03-16T12:27:41.475Z,14.50
2018-03-16T12:30:09.093Z,14.50
2018-03-16T12:32:36.764Z,14.50
2018-03-16T12:35:05.056Z,14.50
2018-03-16T12:37:32.730Z,14.60
2018-03-16T12:40:00.296Z,14.50
2018-03-16T12:42:27.937Z,14.60
2018-03-16T12:44:55.549Z,14.70
2018-03-16T12:47:23.271Z,14.80
2018-03-16T12:49:51.134Z,15.00
2018-03-16T12:52:19.538Z,15.10
2018-03-16T12:54:47.131Z,15.10
2018-03-16T12:57:15.814Z,15.50
2018-03-16T12:59:44.209Z,15.50
2018-03-16T13:02:12.559Z,15.40
2018-03-16T13:04:40.252Z,15.40
2018-03-16T13:07:08.627Z,15.20
2018-03-16T13:09:36.974Z,15.10
2018-03-16T13:12:04.548Z,15.00
2018-03-16T13:14:32.159Z,14.80
2018-03-16T13:16:59.753Z,14.60
2018-03-16T13:19:27.533Z,14.40
2018-03-16T13:21:55.395Z,14.30
2018-03-16T13:24:23.025Z,14.10
2018-03-16T13:26:50.995Z,13.90
2018-03-16T13:29:18.783Z,13.90
2018-03-16T13:31:46.410Z,13.80
2018-03-16T13:34:13.994Z,13.70
2018-03-16T13:36:41.853Z,13.60
2018-03-16T13:39:09.460Z,13.60
2018-03-16T13:41:37.023Z,13.60
2018-03-16T13:44:06.040Z,13.80
2018-03-16T13:46:33.611Z,13.90
2018-03-16T13:49:01.968Z,13.80
2018-03-16T13:51:29.583Z,13.80
2018-03-16T13:53:57.147Z,13.60
2018-03-16T13:56:25.081Z,13.50
2018-03-16T13:58:53.453Z,13.40
2018-03-16T14:01:21.015Z,13.40
2018-03-16T14:03:48.602Z,13.60
2018-03-16T14:06:16.179Z,13.70
2018-03-16T14:08:44.519Z,14.20
2018-03-16T14:11:12.261Z,14.20
2018-03-16T14:13:39.852Z,14.40
2018-03-16T14:16:08.201Z,14.40
2018-03-16T14:18:35.832Z,14.40
2018-03-16T14:21:03.411Z,14.50
2018-03-16T14:23:30.988Z,14.50
2018-03-16T14:25:59.041Z,14.30
2018-03-16T14:28:26.660Z,14.00
2018-03-16T14:30:54.993Z,13.10
2018-03-16T14:33:23.032Z,13.50
2018-03-16T14:35:51.466Z,14.60
2018-03-16T14:38:19.047Z,14.60
2018-03-16T14:40:46.635Z,15.20
2018-03-16T14:43:14.228Z,15.80
2018-03-16T14:45:41.922Z,16.50
2018-03-16T14:48:09.549Z,16.50
2018-03-16T14:50:38.443Z,16.30
2018-03-16T14:53:06.940Z,17.60
2018-03-16T14:55:34.727Z,17.60
2018-03-16T14:58:02.296Z,18.70
2018-03-16T15:00:29.877Z,18.10
2018-03-16T15:02:57.768Z,16.90
2018-03-16T15:05:25.336Z,15.90
2018-03-16T15:07:52.912Z,15.20
2018-03-16T15:10:20.519Z,14.70
2018-03-16T15:12:48.112Z,14.60
2018-03-16T15:15:15.680Z,15.70
2018-03-16T15:17:43.284Z,17.70
2018-03-16T15:20:10.890Z,19.80
2018-03-16T15:22:38.462Z,21.90
2018-03-16T15:25:06.101Z,23.00
2018-03-16T15:27:34.457Z,24.80
2018-03-16T15:30:02.037Z,24.70
2018-03-16T15:32:29.644Z,25.50
2018-03-16T15:34:57.228Z,26.20
2018-03-16T15:37:24.804Z,26.70
2018-03-16T15:39:52.719Z,27.30
2018-03-16T15:42:20.337Z,27.70
2018-03-16T15:44:48.285Z,28.30
2018-03-16T15:47:15.999Z,28.40
2018-03-16T15:49:44.719Z,28.20
2018-03-16T15:52:12.588Z,28.20
2018-03-16T15:54:40.239Z,27.20
2018-03-16T15:57:08.217Z,27.40
2018-03-16T15:59:35.958Z,28.00
2018-03-16T16:02:03.628Z,28.40
2018-03-16T16:04:31.249Z,28.20
2018-03-16T16:06:59.171Z,28.10
2018-03-16T16:09:26.779Z,28.00
2018-03-16T16:11:55.177Z,28.60
2018-03-16T16:14:22.815Z,28.60
2018-03-16T16:16:51.227Z,28.20
2018-03-16T16:19:18.971Z,28.10
2018-03-16T16:21:47.424Z,27.70
2018-03-16T16:24:15.086Z,27.70
2018-03-16T16:26:42.708Z,27.90
2018-03-16T16:29:10.303Z,27.90
2018-03-16T16:31:38.445Z,27.70
2018-03-16T16:34:06.048Z,27.50
2018-03-16T16:36:33.691Z,27.20
2018-03-16T16:39:01.331Z,27.20
2018-03-16T16:41:28.941Z,27.30
2018-03-16T16:43:56.511Z,27.20
2018-03-16T16:46:24.091Z,27.00
2018-03-16T16:48:52.081Z,26.80
2018-03-16T16:51:20.418Z,26.60
2018-03-16T16:53:48.011Z,26.50
2018-03-16T16:56:16.401Z,26.50
2018-03-16T16:58:44.811Z,25.00
2018-03-16T17:01:12.414Z,25.00
2018-03-16T17:03:40.287Z,23.10
2018-03-16T17:06:07.879Z,21.40
2018-03-16T17:08:36.673Z,19.00
2018-03-16T17:11:04.352Z,18.90
2018-03-16T17:13:34.205Z,18.10
2018-03-16T17:16:02.046Z,17.70
2018-03-16T17:18:29.711Z,17.10
2018-03-16T17:20:57.612Z,16.40
2018-03-16T17:23:25.779Z,15.80
2018-03-16T17:25:53.730Z,15.30
2018-03-16T17:28:21.511Z,14.80
2018-03-16T17:30:49.547Z,14.40
2018-03-16T17:33:18.002Z,13.90
2018-03-16T17:35:45.612Z,13.80
2018-03-16T17:38:13.304Z,13.60
2018-03-16T17:40:40.914Z,13.30
2018-03-16T17:43:09.273Z,13.20
2018-03-16T17:45:37.006Z,13.10
2018-03-16T17:48:05.709Z,13.10
2018-03-16T17:50:33.678Z,13.00
2018-03-16T17:53:01.553Z,12.90
2018-03-16T17:55:29.155Z,12.80
2018-03-16T17:57:56.759Z,12.60
2018-03-16T18:00:25.025Z,12.40
2018-03-16T18:02:53.140Z,12.20
2018-03-16T18:05:20.766Z,12.00
2018-03-16T18:07:48.358Z,11.90
2018-03-16T18:10:16.832Z,11.60
2018-03-16T18:12:44.399Z,11.60
2018-03-16T18:15:12.424Z,11.50
2018-03-16T18:17:40.773Z,11.30
2018-03-16T18:20:08.432Z,11.20
2018-03-16T18:22:36.747Z,11.10
2018-03-16T18:25:04.383Z,11.10
2018-03-16T18:27:32.055Z,11.00
2018-03-16T18:29:59.736Z,11.00
2018-03-16T18:32:28.147Z,11.00
2018-03-16T18:34:55.762Z,11.00
2018-03-16T18:37:23.369Z,11.00
2018-03-16T18:39:50.944Z,10.80
2018-03-16T18:42:18.512Z,10.60
2018-03-16T18:44:46.577Z,10.50
2018-03-16T18:47:14.155Z,10.40
2018-03-16T18:49:41.724Z,10.30
2018-03-16T18:52:09.635Z,10.10
2018-03-16T18:54:37.226Z,10.00
2018-03-16T18:57:04.857Z,9.90
2018-03-16T18:59:32.449Z,9.80
2018-03-16T19:02:01.328Z,9.30
2018-03-16T19:04:28.891Z,9.70
2018-03-16T19:06:56.471Z,9.60
2018-03-16T19:09:24.063Z,9.60
2018-03-16T19:11:51.619Z,9.50
2018-03-16T19:14:19.615Z,9.50
2018-03-16T19:16:47.175Z,9.50
2018-03-16T19:19:14.743Z,9.40
2018-03-16T19:21:42.321Z,9.40
2018-03-16T19:24:09.884Z,9.30
2018-03-16T19:26:37.462Z,9.30
2018-03-16T19:29:06.130Z,9.20
2018-03-16T19:31:33.695Z,9.20
2018-03-16T19:34:01.348Z,9.10
2018-03-16T19:36:28.940Z,9.10
2018-03-16T19:38:56.517Z,9.10
2018-03-16T19:41:24.858Z,9.00
2018-03-16T19:43:52.747Z,9.00
2018-03-16T19:46:20.314Z,8.90
2018-03-16T19:48:48.691Z,8.90
2018-03-16T19:51:16.251Z,8.90
2018-03-16T19:53:44.611Z,9.20
2018-03-16T19:56:12.191Z,8.80
2018-03-16T19:58:40.277Z,8.70
2018-03-16T20:01:07.872Z,8.70
2018-03-16T20:03:35.459Z,8.70
2018-03-16T20:06:04.207Z,8.70
2018-03-16T20:08:32.543Z,8.60
2018-03-16T20:11:00.135Z,8.60
2018-03-16T20:13:28.805Z,8.60
2018-03-16T20:15:56.379Z,8.50
2018-03-16T20:18:23.963Z,8.50
2018-03-16T20:20:52.334Z,8.40
2018-03-16T20:23:20.679Z,8.40
2018-03-16T20:25:48.279Z,8.40
2018-03-16T20:28:16.656Z,8.30
2018-03-16T20:30:44.995Z,8.20
2018-03-16T20:33:13.716Z,8.20
2018-03-16T20:35:41.334Z,8.20
2018-03-16T20:38:08.967Z,8.10
2018-03-16T20:40:36.595Z,8.10
2018-03-16T20:43:04.164Z,8.10
2018-03-16T20:45:31.748Z,8.10
2018-03-16T20:48:00.107Z,8.10
2018-03-16T20:50:27.694Z,8.00
2018-03-16T20:52:56.038Z,8.00
2018-03-16T20:55:23.991Z,8.00
2018-03-16T20:57:51.568Z,7.90
2018-03-16T21:00:19.158Z,7.80
2018-03-16T21:02:47.284Z,7.80
2018-03-16T21:05:14.864Z,7.80
2018-03-16T21:07:43.048Z,7.80
2018-03-16T21:10:10.639Z,7.70
2018-03-16T21:12:38.990Z,7.70
2018-03-16T21:15:07.322Z,7.70
2018-03-16T21:17:36.202Z,7.70
2018-03-16T21:20:04.649Z,7.60
2018-03-16T21:22:32.698Z,7.60
2018-03-16T21:25:00.978Z,7.60
2018-03-16T21:27:28.564Z,7.60
2018-03-16T21:29:56.138Z,7.60
2018-03-16T21:32:23.765Z,7.60
2018-03-16T21:34:51.327Z,7.60
2018-03-16T21:37:18.968Z,7.60
2018-03-16T21:39:46.554Z,7.50
2018-03-16T21:42:14.189Z,7.50
2018-03-16T21:44:42.542Z,7.40
2018-03-16T21:47:10.111Z,7.40
2018-03-16T21:49:38.460Z,7.40
2018-03-16T21:52:06.055Z,7.40
2018-03-16T21:54:34.411Z,7.40
2018-03-16T21:57:02.417Z,7.40
2018-03-16T21:59:30.753Z,7.00
2018-03-16T22:01:58.331Z,7.30
2018-03-16T22:04:25.939Z,7.40
2018-03-16T22:06:53.523Z,7.30
2018-03-16T22:09:21.189Z,7.30
2018-03-16T22:11:48.814Z,7.30
2018-03-16T22:14:16.387Z,7.20
2018-03-16T22:16:45.439Z,7.20
2018-03-16T22:19:13.068Z,7.10
2018-03-16T22:21:40.631Z,7.10
2018-03-16T22:24:08.191Z,7.10
2018-03-16T22:26:35.786Z,7.00
2018-03-16T22:29:03.368Z,7.00
2018-03-16T22:31:30.942Z,6.90
2018-03-16T22:33:58.934Z,6.90
2018-03-16T22:36:27.268Z,6.80
2018-03-16T22:38:54.867Z,6.80
2018-03-16T22:41:22.519Z,6.80
2018-03-16T22:43:50.137Z,6.80
2018-03-16T22:46:17.700Z,6.80
2018-03-16T22:48:45.290Z,6.80
2018-03-16T22:51:12.928Z,6.70
2018-03-16T22:53:41.454Z,6.70
2018-03-16T22:56:09.315Z,6.60
2018-03-16T22:58:36.893Z,6.60
2018-03-16T23:01:05.316Z,6.50
2018-03-16T23:03:32.910Z,6.50
2018-03-16T23:06:00.520Z,6.40
2018-03-16T23:08:28.087Z,6.50
2018-03-16T23:10:55.687Z,6.40
2018-03-16T23:13:23.299Z,6.40
2018-03-16T23:15:50.910Z,6.40
2018-03-16T23:18:18.533Z,6.40
2018-03-16T23:20:46.858Z,6.40
2018-03-16T23:23:14.439Z,6.40
2018-03-16T23:25:42.071Z,6.40
2018-03-16T23:28:09.637Z,6.40
2018-03-16T23:30:37.193Z,6.40
2018-03-16T23:33:04.788Z,6.40
2018-03-16T23:35:32.349Z,6.40
2018-03-16T23:37:59.927Z,6.50
2018-03-16T23:40:27.511Z,6.50
2018-03-16T23:42:55.072Z,6.50
2018-03-16T23:45:23.509Z,6.50
2018-03-16T23:47:51.091Z,6.50
2018-03-16T23:50:18.652Z,6.40
2018-03-16T23:52:46.226Z,6.40
2018-03-16T23:55:13.818Z,6.40
2018-03-16T23:57:41.387Z,6.30
